Aérodrome :
LOGIN :

S'inscrire | Disclaimer

   EN    FR    IT 

 










Légende :    VFR   VFR Marginal   IFR   IFR Intensif   IFR Très Intensif
Visi : 
Plafond : 
>= 8 km
>= 3000ft
5 à 8 km
1000 à 3000 ft
1500m à 5 km
500 à 1000 ft
800 à 1500m
200 à 500 ft
< 800m
< 200 ft
Symboles :   Orages  Brouillard  Fortes neiges  Fortes précipitations  Vent > 20 kt
SIGMETs :   Divers  Orages  Givrage  Turbulence  Onde Orograph.  Cendres Volcan.







- Altitude de l'aérodrome : 144 ft
- Code IATA : PGF
- Voir les cartes d'approche


LFMP - Perpignan

DERNIER METAR :
  • 161500Z AUTO 08009KT 9999 BKN017 13/08 Q1028 NOSIG

METARs EXPIRÉS :
  • 161430Z AUTO 09008KT 9999 BKN017 13/08 Q1029 NOSIG
  • 161400Z AUTO 09008KT 060V130 9999 SCT017 SCT022 13/08 Q1029 NOSIG
  • 161330Z AUTO 08008KT 050V120 9999 SCT018 14/09 Q1029 NOSIG
  • 161300Z AUTO 10008KT 060V140 9999 BKN021 13/08 Q1029 NOSIG
  • 161230Z AUTO 06007KT 020V110 9999 SCT020 13/07 Q1030 NOSIG

TAF TAF LFMP
Valide du 16 à 15h jusqu'au 17 à 15h UTC


161400Z 1615/1715 10012KT CAVOK
TEMPO 1621/1715 SCT010 BKN020
ATIS : +33 4 68 63 75 12
Pas de NOTAMs connus pour ce terrain.



MET'MAP, la Météo Aéronautique d'un coup d'oeil ! - Copyright ORBIFLY Décembre 2007 - Disclaimer

ORBIFLY MET'MAP TEAM :

Programmation & Développement : Alexandra Zaïnal
Conception & Développement : Baudouin d'Aumeries
Co-Programmation & Développement : Marc-Olivier Méhu
Soutien technique & logistique : Manuel Goepfert

Contact : metmap@orbifly.com




SOURCES & CREDITS :

   NOAA